Other Surface Observations
Issued by NWS Great Falls, MT

Home | Current Version | Previous Version | Text Only | Print | Product List | Glossary On
Versions: 1 2 3 4 5 6 7 8 9 10 11 12 13 14 15 16 17 18 19 20 21 22 23 24 25 26 27 28 29 30 31 32 33 34 35 36 37 38 39 40 41 42 43 44 45 46 47 48 49 50
000
SXUS55 KTFX 211106
OSOTFX
AREA AWOS OBSERVATIONS
NATIONAL WEATHER SERVICE GREAT FALLS MT
0405 AM MST SUN DEC 21 2014

METAR KPWD 211100Z AUTO 09005KT 10SM M05/M07 A2952 RMK PLENTYWOOD
METAR KPO1 211100Z AUTO 33003KT 10SM M09/M11 A2952 RMK POPLAR
METAR K1S3 211100Z AUTO 00000KT 10SM M01/M04 A2950 RMK FORSYTH
METAR KS71 211100Z AUTO 09007KT 10SM M06/M07 A2939 RMK CHINOOK
METAR K38S 211100Z AUTO 17009G15KT 10SM 03/M01 A2952 RMK DEER LODGE
METAR K3U3 211100Z AUTO 19019G27KT 10SM 03/M02 A2951 RMK ANACONDA
METAR K6S5 211100Z AUTO 19014KT 10SM 04/02 A2954 RMK HAMILTON
METAR KS59 211100Z AUTO 00000KT 7SM RMK LIBBY
METAR K88M 211100Z AUTO 15015KT 10SM 03/01 A2942 RMK EUREKA



USA.gov is the U.S. government's official web portal to all federal, state and local government web resources and services.